^^
Dati Storici Meteo-Taranto
 
Giornaliero Riassunto per Maggio 19, 2021 Unità:  Metrica    Inglese   Entrambe
Giornaliero Settimanale Mensile Annuale Custom
  Attuale: Max: Min: Media:
Temperatura: 18.4 °C 24.8 °C 17.1 °C 20.3 °C
P.to di Rugiada: 13.5 °C 13.5 °C 7.4 °C 11 °C
Umidità: 73% 73% 33.7% 57%
Vel. Vento: 8.8km/h 27.6km/h 2.6km/h 13.8km/h
Raff. Vento: 12.9km/h 38.6km/h - -
Dir. VentoSE - - WSW
Pressione: 1011.4 hPa 1011.8 hPa 1007.5 hPa -
Precipitazioni: 0.0 mm      
Historical Graphs
 
 
Dati tabulari per Maggio 19, 2021
Orario Temperatura P.to di Rugiada Pressione Vento Vel. Vento Raff. Vento Umidità Precipitazioni (per ora)
00:04 20.2 °C 10.6 °C 1007.5 hPa WNW 8.4 km/h 12.9 km/h 54.2% 0.0 mm
00:09 20.2 °C 10.7 °C 1007.5 hPa WNW 13.8 km/h 11.3 km/h 54.5% 0.0 mm
00:14 20.2 °C 11.2 °C 1007.6 hPa WNW 11.4 km/h 14.5 km/h 56.4% 0.0 mm
00:19 20 °C 10.7 °C 1007.7 hPa WNW 10.7 km/h 11.3 km/h 55% 0.0 mm
00:24 20 °C 10.5 °C 1007.6 hPa West 9.6 km/h 12.9 km/h 54.6% 0.0 mm
00:29 19.8 °C 10.4 °C 1007.6 hPa WNW 13.3 km/h 12.6 km/h 54.5% 0.0 mm
00:34 19.8 °C 9.8 °C 1007.6 hPa West 16.4 km/h 14.5 km/h 52.6% 0.0 mm
00:39 19.7 °C 9.7 °C 1007.6 hPa WNW 17.9 km/h 19.3 km/h 52.4% 0.0 mm
00:44 19.6 °C 10.5 °C 1007.5 hPa WNW 14.5 km/h 19.3 km/h 55.4% 0.0 mm
00:49 19.5 °C 11.2 °C 1007.5 hPa WNW 17.4 km/h 16.1 km/h 58.9% 0.0 mm
00:54 19.4 °C 11.3 °C 1007.5 hPa WNW 17.8 km/h 19.3 km/h 59.6% 0.0 mm
00:59 19.3 °C 11.5 °C 1007.5 hPa WNW 16.3 km/h 19.3 km/h 60.7% 0.0 mm
01:04 19.2 °C 11.7 °C 1007.5 hPa West 16.6 km/h 19.3 km/h 61.6% 0.0 mm
01:09 19.2 °C 11.2 °C 1007.5 hPa West 16.4 km/h 19.3 km/h 60% 0.0 mm
01:14 19.1 °C 11.2 °C 1007.6 hPa West 15.5 km/h 20.9 km/h 60.2% 0.0 mm
01:19 19.1 °C 11.1 °C 1007.6 hPa West 15 km/h 19.3 km/h 60% 0.0 mm
01:24 19 °C 11.2 °C 1007.7 hPa West 16.8 km/h 16.1 km/h 60.4% 0.0 mm
01:29 19 °C 11 °C 1007.7 hPa WNW 17.5 km/h 19.3 km/h 59.8% 0.0 mm
01:34 18.9 °C 10.6 °C 1007.7 hPa WNW 14.6 km/h 19.3 km/h 58.2% 0.0 mm
01:39 18.9 °C 10.4 °C 1007.7 hPa WNW 16.4 km/h 16.1 km/h 58% 0.0 mm
01:44 18.8 °C 10.4 °C 1007.6 hPa WNW 15.7 km/h 19.3 km/h 58% 0.0 mm
01:49 18.8 °C 10.4 °C 1007.6 hPa WNW 17.6 km/h 16.1 km/h 58% 0.0 mm
01:54 18.8 °C 10.4 °C 1007.8 hPa WNW 12.2 km/h 19.3 km/h 58.2% 0.0 mm
01:59 18.8 °C 10.3 °C 1007.8 hPa WNW 11.7 km/h 14.5 km/h 58% 0.0 mm
02:04 18.7 °C 10.5 °C 1007.8 hPa WNW 11.4 km/h 12.9 km/h 58.6% 0.0 mm
02:09 18.7 °C 10.6 °C 1007.8 hPa WNW 13.4 km/h 12.9 km/h 59.4% 0.0 mm
02:14 18.6 °C 10.8 °C 1007.8 hPa WNW 12.8 km/h 14.5 km/h 60.5% 0.0 mm
02:19 18.5 °C 11.2 °C 1007.9 hPa WNW 8.7 km/h 14.5 km/h 62.5% 0.0 mm
02:24 18.4 °C 11.4 °C 1007.9 hPa WNW 9.9 km/h 9.7 km/h 63.5% 0.0 mm
02:29 18.3 °C 11.3 °C 1007.9 hPa West 12.5 km/h 12.9 km/h 63.6% 0.0 mm
02:34 18.2 °C 11.1 °C 1007.9 hPa WNW 13.3 km/h 14.5 km/h 63.5% 0.0 mm
02:39 18.2 °C 11.2 °C 1007.9 hPa NW 6.5 km/h 14.5 km/h 63.8% 0.0 mm
02:44 18.2 °C 11 °C 1007.9 hPa NW 8.6 km/h 7.7 km/h 63% 0.0 mm
02:49 18.2 °C 11 °C 1007.9 hPa WNW 9.4 km/h 7.6 km/h 62.8% 0.0 mm
02:54 18.2 °C 11 °C 1007.9 hPa WNW 10.8 km/h 11.3 km/h 63.2% 0.0 mm
02:59 18.1 °C 11 °C 1007.9 hPa WNW 11 km/h 11.3 km/h 63.5% 0.0 mm
03:04 18 °C 10.9 °C 1008.0 hPa WNW 11.1 km/h 12.9 km/h 63.1% 0.0 mm
03:09 18 °C 11.1 °C 1008.0 hPa WNW 11.4 km/h 12.9 km/h 64% 0.0 mm
03:14 17.9 °C 11.2 °C 1008.0 hPa WNW 13.2 km/h 12.9 km/h 64.8% 0.0 mm
03:19 17.9 °C 11.2 °C 1008.1 hPa WNW 12.6 km/h 16.1 km/h 65% 0.0 mm
03:24 17.9 °C 11 °C 1008.1 hPa WNW 13.8 km/h 12.9 km/h 64.1% 0.0 mm
03:29 17.9 °C 11 °C 1008.1 hPa WNW 12.9 km/h 14.5 km/h 64% 0.0 mm
03:34 17.9 °C 11 °C 1008.1 hPa WNW 11.8 km/h 12.9 km/h 64% 0.0 mm
03:39 17.9 °C 11.2 °C 1008.1 hPa WNW 9.3 km/h 12.9 km/h 65.1% 0.0 mm
03:44 17.8 °C 11.5 °C 1008.2 hPa West 9.3 km/h 7.6 km/h 66.7% 0.0 mm
03:49 17.7 °C 11.7 °C 1008.1 hPa West 10.2 km/h 11.3 km/h 68% 0.0 mm
03:54 17.6 °C 11.6 °C 1008.2 hPa WNW 8.2 km/h 11.3 km/h 68% 0.0 mm
03:59 17.6 °C 11.7 °C 1008.2 hPa WNW 7.2 km/h 11.3 km/h 68.7% 0.0 mm
04:04 17.6 °C 11.3 °C 1008.1 hPa WNW 8.1 km/h 9.7 km/h 66.9% 0.0 mm
04:09 17.6 °C 11.1 °C 1008.3 hPa WNW 6.9 km/h 9.7 km/h 66.1% 0.0 mm
04:14 17.6 °C 11 °C 1008.3 hPa WNW 8.7 km/h 9.7 km/h 65.6% 0.0 mm
04:19 17.6 °C 10.9 °C 1008.3 hPa WNW 10.4 km/h 11.3 km/h 65% 0.0 mm
04:24 17.5 °C 10.9 °C 1008.4 hPa WNW 6.7 km/h 11.3 km/h 65% 0.0 mm
04:29 17.5 °C 10.8 °C 1008.4 hPa WNW 7.5 km/h 9.7 km/h 65% 0.0 mm
04:34 17.5 °C 10.9 °C 1008.3 hPa WNW 5.6 km/h 9.7 km/h 65.2% 0.0 mm
04:39 17.4 °C 10.8 °C 1008.4 hPa NW 6.5 km/h 6.6 km/h 65% 0.0 mm
04:44 17.4 °C 10.5 °C 1008.5 hPa NW 7.4 km/h 11.3 km/h 64.1% 0.0 mm
04:49 17.4 °C 10.1 °C 1008.6 hPa NNW 8.6 km/h 8 km/h 62.2% 0.0 mm
04:54 17.5 °C 9.9 °C 1008.6 hPa NW 10.9 km/h 11.3 km/h 61% 0.0 mm
04:59 17.4 °C 9.8 °C 1008.7 hPa NW 11.8 km/h 16.1 km/h 61% 0.0 mm
05:04 17.3 °C 9.6 °C 1008.8 hPa NW 8.1 km/h 12.9 km/h 60.5% 0.0 mm
05:09 17.3 °C 9.6 °C 1008.8 hPa NNW 9.8 km/h 7.6 km/h 61% 0.0 mm
05:14 17.3 °C 9.6 °C 1008.7 hPa NW 13.1 km/h 19.3 km/h 60.8% 0.0 mm
05:19 17.4 °C 9.5 °C 1008.7 hPa NNW 14.7 km/h 19.3 km/h 59.8% 0.0 mm
05:24 17.5 °C 9.3 °C 1008.7 hPa NNW 9.1 km/h 16.1 km/h 58.9% 0.0 mm
05:29 17.5 °C 9.2 °C 1008.7 hPa NW 5.7 km/h 11.3 km/h 58% 0.0 mm
05:34 17.5 °C 9.3 °C 1008.8 hPa WNW 2.6 km/h 11.3 km/h 58.4% 0.0 mm
05:39 17.5 °C 9.4 °C 1008.9 hPa NW 9.6 km/h 9 km/h 59% 0.0 mm
05:44 17.5 °C 9.7 °C 1008.9 hPa WNW 14.4 km/h 12.9 km/h 60.2% 0.0 mm
05:49 17.5 °C 9.7 °C 1008.8 hPa WNW 13.8 km/h 16.1 km/h 60.1% 0.0 mm
05:54 17.3 °C 9.6 °C 1008.8 hPa WNW 15.5 km/h 16.1 km/h 60.5% 0.0 mm
05:59 17.3 °C 9.8 °C 1009.0 hPa WNW 13.5 km/h 16.1 km/h 61.6% 0.0 mm
06:04 17.2 °C 9.9 °C 1009.0 hPa NW 9.7 km/h 14.5 km/h 62% 0.0 mm
06:09 17.3 °C 9.9 °C 1009.2 hPa WNW 12.7 km/h 11.3 km/h 62% 0.0 mm
06:14 17.2 °C 10 °C 1009.2 hPa West 16.8 km/h 14.6 km/h 62.3% 0.0 mm
06:19 17.2 °C 10.2 °C 1009.3 hPa WNW 18.4 km/h 19.3 km/h 63.5% 0.0 mm
06:24 17.2 °C 10.3 °C 1009.4 hPa WNW 19.9 km/h 22.5 km/h 63.9% 0.0 mm
06:29 17.2 °C 10.4 °C 1009.4 hPa WNW 18.8 km/h 20.9 km/h 64.4% 0.0 mm
06:34 17.2 °C 10.6 °C 1009.5 hPa WNW 18.3 km/h 19.3 km/h 65.1% 0.0 mm
06:39 17.2 °C 10.5 °C 1009.6 hPa WNW 17.7 km/h 19.3 km/h 65% 0.0 mm
06:44 17.1 °C 10.3 °C 1009.8 hPa WNW 17.9 km/h 19.3 km/h 64.3% 0.0 mm
06:49 17.2 °C 10.4 °C 1009.8 hPa WNW 16.8 km/h 19.3 km/h 64.6% 0.0 mm
06:54 17.2 °C 10.3 °C 1009.9 hPa WNW 17.5 km/h 19.3 km/h 64% 0.0 mm
06:59 17.2 °C 10.4 °C 1010.0 hPa WNW 17.1 km/h 22.5 km/h 64.6% 0.0 mm
07:04 17.2 °C 10.3 °C 1010.0 hPa WNW 16.2 km/h 19.3 km/h 64% 0.0 mm
07:09 17.2 °C 10.5 °C 1010.0 hPa WNW 16.4 km/h 19.3 km/h 64.9% 0.0 mm
07:14 17.2 °C 10.9 °C 1010.1 hPa West 15 km/h 16.1 km/h 66.4% 0.0 mm
07:19 17.3 °C 10.8 °C 1010.1 hPa WNW 15.2 km/h 19.3 km/h 65.8% 0.0 mm
07:24 17.3 °C 10.5 °C 1010.3 hPa WNW 16.6 km/h 19.3 km/h 64.4% 0.0 mm
07:29 17.3 °C 10.5 °C 1010.4 hPa WNW 16.5 km/h 19.3 km/h 64.4% 0.0 mm
07:34 17.4 °C 10.7 °C 1010.4 hPa WNW 15.5 km/h 19.3 km/h 65% 0.0 mm
07:39 17.4 °C 10.7 °C 1010.5 hPa WNW 17.1 km/h 19.3 km/h 64.8% 0.0 mm
07:44 17.5 °C 11.1 °C 1010.5 hPa WNW 18.1 km/h 19.3 km/h 66.1% 0.0 mm
07:49 17.4 °C 11 °C 1010.6 hPa WNW 17.8 km/h 19.3 km/h 66.1% 0.0 mm
07:54 17.4 °C 11.2 °C 1010.7 hPa WNW 17.5 km/h 19.3 km/h 66.8% 0.0 mm
07:59 17.4 °C 11.4 °C 1010.7 hPa WNW 18.1 km/h 19.3 km/h 67.7% 0.0 mm
08:04 17.5 °C 11.4 °C 1010.7 hPa WNW 15.3 km/h 19.3 km/h 67.7% 0.0 mm
08:09 17.5 °C 11.5 °C 1010.6 hPa WNW 15.8 km/h 19.3 km/h 68.1% 0.0 mm
08:14 17.5 °C 11.6 °C 1010.5 hPa WNW 15.9 km/h 16.1 km/h 68.7% 0.0 mm
08:19 17.5 °C 11.7 °C 1010.4 hPa WNW 12.4 km/h 16.1 km/h 68.8% 0.0 mm
08:24 17.6 °C 11.4 °C 1010.4 hPa West 12.4 km/h 14.5 km/h 67.4% 0.0 mm
08:29 17.7 °C 11.4 °C 1010.4 hPa WNW 12.3 km/h 12.9 km/h 66.6% 0.0 mm
08:34 17.8 °C 11.1 °C 1010.4 hPa WNW 12.1 km/h 14.5 km/h 65.1% 0.0 mm
08:39 17.9 °C 11 °C 1010.4 hPa West 11.6 km/h 12.9 km/h 64.1% 0.0 mm
08:44 18.1 °C 11.1 °C 1010.6 hPa WNW 12.4 km/h 12.9 km/h 63.7% 0.0 mm
08:49 18.3 °C 11.3 °C 1010.7 hPa WNW 15.9 km/h 14.5 km/h 64% 0.0 mm
08:54 18.4 °C 11.7 °C 1010.8 hPa WNW 14.1 km/h 16.1 km/h 65% 0.0 mm
08:59 18.5 °C 11.7 °C 1010.8 hPa West 11.5 km/h 16.1 km/h 64.7% 0.0 mm
09:04 18.6 °C 11.8 °C 1010.9 hPa West 14.7 km/h 12.9 km/h 65% 0.0 mm
09:09 18.5 °C 12.2 °C 1010.9 hPa West 14.2 km/h 16.1 km/h 66.8% 0.0 mm
09:14 18.4 °C 12.2 °C 1010.9 hPa West 12.4 km/h 16.1 km/h 66.9% 0.0 mm
09:19 18.5 °C 12.3 °C 1010.9 hPa WSW 11.3 km/h 12.9 km/h 67.3% 0.0 mm
09:24 18.7 °C 12.7 °C 1011.0 hPa West 12.7 km/h 14.5 km/h 68% 0.0 mm
09:29 18.7 °C 12.5 °C 1011.0 hPa WSW 12.5 km/h 14.5 km/h 67.5% 0.0 mm
09:34 18.7 °C 12.6 °C 1010.9 hPa WSW 10.8 km/h 14.5 km/h 67.6% 0.0 mm
09:39 18.9 °C 12.6 °C 1010.9 hPa WSW 7.9 km/h 11.3 km/h 66.9% 0.0 mm
09:44 19.1 °C 12.4 °C 1011.0 hPa WSW 10.3 km/h 9.7 km/h 65.2% 0.0 mm
09:49 18.9 °C 12.1 °C 1011.0 hPa WSW 9.2 km/h 11.3 km/h 64.7% 0.0 mm
09:54 19.1 °C 12 °C 1011.0 hPa West 8.4 km/h 9.7 km/h 63.5% 0.0 mm
09:59 19.3 °C 12 °C 1010.9 hPa WSW 6.6 km/h 9.7 km/h 62.6% 0.0 mm
10:04 19.6 °C 11.6 °C 1011.0 hPa SW 7.3 km/h 9.7 km/h 60% 0.0 mm
10:09 19.8 °C 11.5 °C 1011.1 hPa West 7.8 km/h 9.7 km/h 59% 0.0 mm
10:14 20.1 °C 11.7 °C 1011.1 hPa WNW 8.4 km/h 9.7 km/h 58.5% 0.0 mm
10:19 20.4 °C 11.5 °C 1011.2 hPa West 9.6 km/h 11.3 km/h 56.9% 0.0 mm
10:24 20.4 °C 11.5 °C 1011.2 hPa West 10.1 km/h 11.3 km/h 56.9% 0.0 mm
10:29 20.4 °C 11.4 °C 1011.3 hPa West 9.7 km/h 11.3 km/h 56.1% 0.0 mm
10:34 20.5 °C 11.3 °C 1011.2 hPa WSW 8.4 km/h 11.3 km/h 55.6% 0.0 mm
10:39 20.7 °C 11.2 °C 1011.0 hPa WSW 6.9 km/h 9.7 km/h 54.8% 0.0 mm
10:44 21 °C 11.5 °C 1011.0 hPa West 9.5 km/h 8 km/h 54.8% 0.0 mm
10:49 21.2 °C 11.9 °C 1011.0 hPa WSW 11.6 km/h 11.3 km/h 55.6% 0.0 mm
10:54 21.2 °C 12 °C 1011.0 hPa West 10.5 km/h 12.9 km/h 55.7% 0.0 mm
10:59 21.4 °C 12.8 °C 1010.9 hPa West 13.3 km/h 12.9 km/h 58% 0.0 mm
11:04 21.2 °C 12.9 °C 1010.9 hPa WSW 13.7 km/h 14.5 km/h 59.1% 0.0 mm
11:09 21.3 °C 12.8 °C 1010.9 hPa West 18.2 km/h 19.3 km/h 58.5% 0.0 mm
11:14 21.4 °C 12.5 °C 1011.1 hPa West 14.4 km/h 19.3 km/h 57.2% 0.0 mm
11:19 21.3 °C 12.4 °C 1011.1 hPa WSW 15.9 km/h 16.1 km/h 56.9% 0.0 mm
11:24 21.5 °C 12.1 °C 1011.2 hPa West 13.8 km/h 19.3 km/h 55.3% 0.0 mm
11:29 21.6 °C 12.6 °C 1011.3 hPa West 16.6 km/h 19.3 km/h 56.7% 0.0 mm
11:34 21.7 °C 12.6 °C 1011.3 hPa WSW 15.6 km/h 16.1 km/h 56.1% 0.0 mm
11:39 21.7 °C 13.1 °C 1011.5 hPa West 17.3 km/h 19.3 km/h 58.2% 0.0 mm
11:44 21.7 °C 13.4 °C 1011.5 hPa West 17.2 km/h 19.3 km/h 59.5% 0.0 mm
11:49 21.5 °C 12.9 °C 1011.5 hPa West 16.9 km/h 19.3 km/h 58% 0.0 mm
11:54 21.3 °C 12.3 °C 1011.5 hPa WSW 17.6 km/h 19.3 km/h 56.6% 0.0 mm
11:59 21.3 °C 12.6 °C 1011.6 hPa West 17.8 km/h 19.3 km/h 57.9% 0.0 mm
12:04 21.4 °C 12.8 °C 1011.6 hPa WSW 18.8 km/h 20.9 km/h 58% 0.0 mm
12:09 21.3 °C 12.7 °C 1011.7 hPa WSW 18.1 km/h 20.9 km/h 58% 0.0 mm
12:14 21.4 °C 13 °C 1011.8 hPa WSW 18.1 km/h 19.3 km/h 58.6% 0.0 mm
12:19 21.5 °C 13.2 °C 1011.8 hPa West 17.4 km/h 19.3 km/h 59.3% 0.0 mm
12:24 21.6 °C 12.9 °C 1011.8 hPa WSW 17 km/h 19.3 km/h 57.6% 0.0 mm
12:29 21.8 °C 13 °C 1011.6 hPa West 15.9 km/h 19.3 km/h 57.2% 0.0 mm
12:34 22 °C 13 °C 1011.6 hPa West 15.8 km/h 16.1 km/h 56.5% 0.0 mm
12:39 22.1 °C 13.1 °C 1011.5 hPa WSW 14.3 km/h 16.1 km/h 56.7% 0.0 mm
12:44 22.3 °C 12.8 °C 1011.5 hPa WSW 15.2 km/h 14.5 km/h 55% 0.0 mm
12:49 22.6 °C 12.6 °C 1011.5 hPa WSW 15.6 km/h 16.1 km/h 53.4% 0.0 mm
12:54 22.7 °C 12.2 °C 1011.4 hPa WSW 17.7 km/h 19.3 km/h 51.6% 0.0 mm
12:59 23 °C 12 °C 1011.3 hPa WSW 15.9 km/h 20.9 km/h 50.2% 0.0 mm
13:04 23.3 °C 12.3 °C 1011.3 hPa West 14.4 km/h 16.1 km/h 50% 0.0 mm
13:09 23.4 °C 11.8 °C 1011.3 hPa WSW 17.3 km/h 16.1 km/h 48.2% 0.0 mm
13:14 23.2 °C 11.6 °C 1011.2 hPa WSW 18.6 km/h 20.9 km/h 48.2% 0.0 mm
13:19 22.9 °C 11.4 °C 1011.2 hPa WSW 18.8 km/h 19.3 km/h 48.3% 0.0 mm
13:24 22.9 °C 11.6 °C 1011.2 hPa WSW 17.4 km/h 22.5 km/h 48.8% 0.0 mm
13:29 22.7 °C 11.1 °C 1011.1 hPa WSW 23.7 km/h 21.2 km/h 47.9% 0.0 mm
13:34 22.4 °C 11.3 °C 1011.1 hPa WSW 20.4 km/h 25.7 km/h 49.8% 0.0 mm
13:39 22.5 °C 11.2 °C 1011.0 hPa WSW 22.4 km/h 24.1 km/h 48.6% 0.0 mm
13:44 22.6 °C 11.1 °C 1011.0 hPa WSW 19.5 km/h 24.1 km/h 48.1% 0.0 mm
13:49 22.8 °C 11.1 °C 1010.9 hPa WSW 20.1 km/h 20.9 km/h 47.9% 0.0 mm
13:54 23 °C 11 °C 1011.0 hPa WSW 19.6 km/h 24.1 km/h 46.7% 0.0 mm
13:59 23.1 °C 10.7 °C 1011.0 hPa WSW 18.6 km/h 24.1 km/h 45.7% 0.0 mm
14:04 23.2 °C 10.4 °C 1011.0 hPa WSW 19 km/h 20.9 km/h 44.5% 0.0 mm
14:09 23.3 °C 10 °C 1011.0 hPa WSW 17.2 km/h 20.9 km/h 43.1% 0.0 mm
14:14 23.5 °C 9.8 °C 1011.1 hPa WSW 18.1 km/h 19.3 km/h 41.8% 0.0 mm
14:19 23.7 °C 9.4 °C 1011.1 hPa WSW 12.3 km/h 20.9 km/h 40.5% 0.0 mm
14:24 24.2 °C 8.9 °C 1011.1 hPa SW 13.8 km/h 12.9 km/h 38% 0.0 mm
14:29 24.2 °C 7.6 °C 1011.1 hPa SW 15.2 km/h 14.5 km/h 34.5% 0.0 mm
14:34 24.1 °C 9.1 °C 1011.1 hPa SE 17.9 km/h 11.4 km/h 38.5% 0.0 mm
14:39 24.1 °C 9.9 °C 1011.1 hPa SW 10 km/h 20.9 km/h 40.8% 0.0 mm
14:44 24.2 °C 9.8 °C 1011.3 hPa South 8.2 km/h 11.3 km/h 40.1% 0.0 mm
14:49 24.1 °C 9.3 °C 1011.4 hPa SSW 10.4 km/h 11.3 km/h 39.1% 0.0 mm
14:54 24.1 °C 9.3 °C 1011.3 hPa South 12 km/h 14.8 km/h 38.9% 0.0 mm
14:59 24 °C 8 °C 1011.3 hPa SSW 13.8 km/h 24.1 km/h 36.2% 0.0 mm
15:04 24.1 °C 7.9 °C 1011.1 hPa SW 11.7 km/h 24.1 km/h 35.5% 0.0 mm
15:09 24.2 °C 8.3 °C 1011.1 hPa WSW 15.2 km/h 12.9 km/h 36.2% 0.0 mm
15:14 24.1 °C 7.9 °C 1010.9 hPa WSW 12.4 km/h 20.9 km/h 35.4% 0.0 mm
15:19 24.3 °C 7.9 °C 1010.9 hPa SW 14.9 km/h 17.7 km/h 35.1% 0.0 mm
15:24 24.4 °C 7.9 °C 1010.9 hPa SSE 13.3 km/h 19.3 km/h 35% 0.0 mm
15:29 24.5 °C 7.5 °C 1010.8 hPa South 11 km/h 16.1 km/h 33.9% 0.0 mm
15:34 24.6 °C 7.7 °C 1010.8 hPa South 8.9 km/h 19.3 km/h 34% 0.0 mm
15:39 24.6 °C 7.6 °C 1010.8 hPa South 12.7 km/h 16.1 km/h 33.8% 0.0 mm
15:44 24.4 °C 7.4 °C 1010.8 hPa South 13.6 km/h 19.3 km/h 33.7% 0.0 mm
15:49 24.3 °C 7.4 °C 1010.7 hPa SSW 7.3 km/h 19.3 km/h 34% 0.0 mm
15:54 24.2 °C 7.5 °C 1010.7 hPa South 12.9 km/h 12.6 km/h 34.2% 0.0 mm
15:59 24.2 °C 7.5 °C 1010.7 hPa West 6.9 km/h 19.3 km/h 34.5% 0.0 mm
16:04 24.3 °C 7.9 °C 1010.8 hPa South 8.7 km/h 12.9 km/h 35% 0.0 mm
16:09 24.4 °C 7.9 °C 1010.7 hPa South 8.6 km/h 11.3 km/h 34.9% 0.0 mm
16:14 24.6 °C 7.8 °C 1010.6 hPa South 16 km/h 13.5 km/h 34.2% 0.0 mm
16:19 24.3 °C 7.8 °C 1010.7 hPa South 18.2 km/h 20.9 km/h 35% 0.0 mm
16:24 24.2 °C 8.2 °C 1010.7 hPa South 16 km/h 22.5 km/h 35.9% 0.0 mm
16:29 24.3 °C 8.8 °C 1010.7 hPa SSE 15.3 km/h 19.3 km/h 37.3% 0.0 mm
16:34 24.1 °C 8.5 °C 1010.7 hPa SSE 15.6 km/h 20.9 km/h 37% 0.0 mm
16:39 24 °C 8.4 °C 1010.8 hPa SSE 11.9 km/h 19.3 km/h 37% 0.0 mm
16:44 24.1 °C 8.1 °C 1010.7 hPa South 13.9 km/h 16.1 km/h 35.9% 0.0 mm
16:49 24.1 °C 8 °C 1010.6 hPa SSE 16.8 km/h 19.3 km/h 35.8% 0.0 mm
16:54 24 °C 8.4 °C 1010.6 hPa SSE 17.4 km/h 19.3 km/h 36.8% 0.0 mm
16:59 24 °C 8 °C 1010.7 hPa SE 20.3 km/h 19.3 km/h 36% 0.0 mm
17:04 23.9 °C 8.1 °C 1010.7 hPa SSE 18.2 km/h 24.1 km/h 36.4% 0.0 mm
17:09 24 °C 8.4 °C 1010.7 hPa SSE 13.3 km/h 20.9 km/h 37% 0.0 mm
17:14 24.4 °C 8.6 °C 1010.7 hPa SE 9.3 km/h 19.3 km/h 36.5% 0.0 mm
17:19 24.8 °C 8.3 °C 1010.7 hPa SSE 13 km/h 12.9 km/h 35% 0.0 mm
17:24 24.8 °C 8.3 °C 1010.6 hPa SE 16.1 km/h 16.1 km/h 35% 0.0 mm
17:29 24.5 °C 8.2 °C 1010.6 hPa SSE 17.3 km/h 19.3 km/h 35.5% 0.0 mm
17:34 24.3 °C 8.6 °C 1010.5 hPa SSE 19.1 km/h 19.3 km/h 36.8% 0.0 mm
17:39 24.2 °C 8.8 °C 1010.5 hPa SSE 17.9 km/h 22.5 km/h 37.4% 0.0 mm
17:44 24.2 °C 8.9 °C 1010.5 hPa South 15.9 km/h 20.9 km/h 37.8% 0.0 mm
17:49 24.3 °C 8.7 °C 1010.3 hPa SSE 15.9 km/h 19.3 km/h 37.1% 0.0 mm
17:54 24.2 °C 8.7 °C 1010.3 hPa SSE 17.5 km/h 19.3 km/h 37.4% 0.0 mm
17:59 24.2 °C 9.2 °C 1010.2 hPa SSE 14.9 km/h 20.9 km/h 38.5% 0.0 mm
18:04 24.3 °C 9.4 °C 1010.2 hPa SSE 20.6 km/h 22.5 km/h 39% 0.0 mm
18:09 24.1 °C 9.5 °C 1010.1 hPa SSE 23.5 km/h 24.1 km/h 39.5% 0.0 mm
18:14 24 °C 9.4 °C 1010.2 hPa South 20.5 km/h 29 km/h 39.7% 0.0 mm
18:19 24 °C 9.4 °C 1010.2 hPa SSE 17.2 km/h 24.1 km/h 39.5% 0.0 mm
18:24 24 °C 10 °C 1010.5 hPa South 22.6 km/h 19.3 km/h 41% 0.0 mm
18:29 23.3 °C 12.6 °C 1010.5 hPa NNE 18.2 km/h 27.4 km/h 51.1% 0.0 mm
18:34 22.1 °C 13.3 °C 1010.5 hPa South 17.6 km/h 19.3 km/h 57.5% 0.0 mm
18:39 21.5 °C 13.3 °C 1010.5 hPa SW 14.9 km/h 27.4 km/h 59.6% 0.0 mm
18:44 21.3 °C 13.2 °C 1010.6 hPa SSW 16.9 km/h 16.1 km/h 60.2% 0.0 mm
18:49 21 °C 13.1 °C 1010.7 hPa SSW 27.6 km/h 24.1 km/h 60.7% 0.0 mm
18:54 20.8 °C 13 °C 1010.6 hPa South 12.2 km/h 38.6 km/h 60.9% 0.0 mm
18:59 20.8 °C 13.2 °C 1010.6 hPa SE 12 km/h 6.6 km/h 61.8% 0.0 mm
19:04 20.7 °C 13.2 °C 1010.6 hPa SSW 16.4 km/h 14.5 km/h 62.2% 0.0 mm
19:09 20.7 °C 13.1 °C 1010.6 hPa South 19.2 km/h 22.5 km/h 62.1% 0.0 mm
19:14 20.6 °C 13 °C 1010.5 hPa SSW 11.1 km/h 22.5 km/h 61.8% 0.0 mm
19:19 20.5 °C 12.9 °C 1010.6 hPa South 17.7 km/h 13 km/h 62% 0.0 mm
19:24 20.3 °C 12.9 °C 1010.7 hPa WSW 14.5 km/h 24.1 km/h 62.4% 0.0 mm
19:29 20.1 °C 12.8 °C 1010.7 hPa South 26.2 km/h 19.3 km/h 63% 0.0 mm
19:34 19.9 °C 12.9 °C 1010.7 hPa SSE 19.1 km/h 35.4 km/h 64.3% 0.0 mm
19:39 19.8 °C 13.2 °C 1010.8 hPa South 18.4 km/h 19.3 km/h 65.8% 0.0 mm
19:44 19.8 °C 13.2 °C 1010.8 hPa SSE 18.1 km/h 22.5 km/h 66% 0.0 mm
19:49 19.7 °C 13.2 °C 1010.8 hPa SSE 15 km/h 20.9 km/h 66.4% 0.0 mm
19:54 19.6 °C 13.3 °C 1010.7 hPa SSE 13.9 km/h 19.3 km/h 67.1% 0.0 mm
19:59 19.5 °C 13.4 °C 1010.8 hPa SSE 13.9 km/h 14.5 km/h 68% 0.0 mm
20:04 19.4 °C 13.3 °C 1010.8 hPa SSE 15.9 km/h 19.3 km/h 68% 0.0 mm
20:09 19.4 °C 13.3 °C 1010.9 hPa South 15.4 km/h 20.9 km/h 68% 0.0 mm
20:14 19.3 °C 13.3 °C 1010.9 hPa South 10 km/h 19.3 km/h 68% 0.0 mm
20:19 19.3 °C 13.3 °C 1011.0 hPa SSE 13.8 km/h 12.9 km/h 68% 0.0 mm
20:24 19.3 °C 13.5 °C 1011.0 hPa SSE 8.6 km/h 19.3 km/h 69% 0.0 mm
20:29 19.3 °C 13.5 °C 1011.0 hPa SSE 13.4 km/h 19.3 km/h 69% 0.0 mm
20:34 19.2 °C 13.4 °C 1011.0 hPa SSE 11.7 km/h 8.5 km/h 69% 0.0 mm
20:39 19.2 °C 13.4 °C 1011.1 hPa SE 9.9 km/h 12.9 km/h 69% 0.0 mm
20:44 19.1 °C 13.4 °C 1011.1 hPa SE 11.5 km/h 14.5 km/h 69.3% 0.0 mm
20:49 19 °C 13.4 °C 1011.2 hPa SE 9.6 km/h 14.5 km/h 70% 0.0 mm
20:54 19 °C 13.4 °C 1011.2 hPa ESE 5.2 km/h 11.3 km/h 70% 0.0 mm
20:59 18.8 °C 13.4 °C 1011.3 hPa East 10 km/h 9.7 km/h 70.7% 0.0 mm
21:04 18.7 °C 13.4 °C 1011.4 hPa ESE 4.9 km/h 11.3 km/h 71.6% 0.0 mm
21:09 18.6 °C 13.4 °C 1011.5 hPa ESE 6.1 km/h 6.4 km/h 72% 0.0 mm
21:14 18.5 °C 13.5 °C 1011.4 hPa ESE 7.4 km/h 8 km/h 72.9% 0.0 mm
21:19 18.5 °C 13.5 °C 1011.4 hPa SE 8 km/h 9.7 km/h 73% 0.0 mm
21:24 18.5 °C 13.5 °C 1011.4 hPa SE 8.8 km/h 12.9 km/h 73% 0.0 mm
21:29 18.5 °C 13.5 °C 1011.4 hPa SE 9.5 km/h 11.3 km/h 73% 0.0 mm
21:34 18.5 °C 13.5 °C 1011.4 hPa SE 10.4 km/h 7.4 km/h 73% 0.0 mm
21:39 18.4 °C 13.5 °C 1011.4 hPa SE 8.8 km/h 12.9 km/h 73% 0.0 mm
Taranto, Puglia, ITA
Compliments of Weather Underground - 4 mb